Time;durP1;ratioP1;P1;durP2;ratioP2;P2;SDS_P1;SDS_P2;PMS_P1;PMS_P2;Temp;Humidity;BMP_temperature;BMP_pressure;BME280_temperature;BME280_humidity;BME280_pressure;Samples;Min_cycle;Max_cycle;Signal;HPM_P1;HPM_P2
2022/03/15 00:01:21;;;;;;;0.00;0.00;;;5.10;99.90;;;;;;5053741;28;20131;-81
2022/03/15 00:03:48;;;;;;;0.25;0.20;;;5.00;99.90;;;;;;5053381;28;20045;-81
2022/03/15 00:06:13;;;;;;;0.00;0.00;;;5.00;99.90;;;;;;5053561;28;20133;-81
2022/03/15 00:08:39;;;;;;;0.40;0.20;;;5.00;99.90;;;;;;5037048;28;20084;-81
2022/03/15 00:11:05;;;;;;;0.00;0.00;;;4.90;99.90;;;;;;5036442;28;20044;-81
2022/03/15 00:13:38;;;;;;;0.13;0.00;;;4.90;99.90;;;;;;5053630;28;20057;-81
2022/03/15 00:16:06;;;;;;;0.00;0.00;;;4.90;99.90;;;;;;5036365;28;20061;-81
2022/03/15 00:18:32;;;;;;;0.10;0.00;;;4.90;99.90;;;;;;5036508;28;20515;-81
2022/03/15 00:20:59;;;;;;;0.00;0.00;;;4.90;99.90;;;;;;5036633;28;20045;-81
2022/03/15 00:23:25;;;;;;;0.08;0.08;;;4.80;99.90;;;;;;5036488;28;20041;-81
2022/03/15 00:25:52;;;;;;;0.10;0.05;;;4.80;99.90;;;;;;5053228;28;20087;-81
2022/03/15 00:28:19;;;;;;;0.00;0.00;;;4.80;99.90;;;;;;5036674;28;20472;-81
2022/03/15 00:30:45;;;;;;;0.03;0.03;;;4.80;99.90;;;;;;5053344;28;20452;-81
2022/03/15 00:33:12;;;;;;;0.10;0.10;;;4.70;99.90;;;;;;5053080;28;20374;-81
2022/03/15 00:35:37;;;;;;;0.00;0.00;;;4.70;99.90;;;;;;5036646;28;20048;-81
2022/03/15 00:38:03;;;;;;;0.20;0.20;;;4.70;99.90;;;;;;5036394;28;20055;-81
2022/03/15 00:40:29;;;;;;;0.00;0.00;;;4.70;99.90;;;;;;5053454;28;20102;-81
2022/03/15 00:42:55;;;;;;;0.00;0.00;;;4.80;99.90;;;;;;5053087;28;20052;-81
2022/03/15 00:45:24;;;;;;;0.00;0.00;;;4.80;99.90;;;;;;5052741;28;20140;-81
2022/03/15 00:47:52;;;;;;;0.80;0.20;;;4.80;99.90;;;;;;5036228;28;20056;-81
2022/03/15 00:50:18;;;;;;;0.40;0.40;;;4.70;99.90;;;;;;5052796;28;20045;-81
2022/03/15 00:52:44;;;;;;;0.00;0.00;;;4.70;99.90;;;;;;5036151;28;20048;-81
2022/03/15 00:55:11;;;;;;;0.00;0.00;;;4.70;99.90;;;;;;5036110;28;20515;-81
2022/03/15 00:57:37;;;;;;;0.50;0.50;;;4.80;99.90;;;;;;5052958;28;20179;-81
2022/03/15 01:00:07;;;;;;;1.00;0.13;;;4.70;99.90;;;;;;5052276;28;20493;-81
2022/03/15 01:02:33;;;;;;;0.10;0.00;;;4.70;99.90;;;;;;5052078;28;20064;-81
2022/03/15 01:04:58;;;;;;;0.10;0.05;;;4.60;99.90;;;;;;5036060;28;20053;-81
2022/03/15 01:07:24;;;;;;;0.68;0.08;;;4.60;99.90;;;;;;5052396;28;20077;-81
2022/03/15 01:09:50;;;;;;;0.00;0.00;;;4.60;99.90;;;;;;5052587;28;20040;-81
2022/03/15 01:12:16;;;;;;;0.03;0.03;;;4.60;99.90;;;;;;5052807;28;20057;-81
2022/03/15 01:14:42;;;;;;;0.00;0.00;;;4.70;99.90;;;;;;5052295;28;20567;-81
2022/03/15 01:17:08;;;;;;;8.57;0.32;;;4.70;99.90;;;;;;5035854;28;20543;-81
2022/03/15 01:19:33;;;;;;;0.00;0.00;;;4.60;99.90;;;;;;5036024;28;20045;-81
2022/03/15 01:21:59;;;;;;;0.00;0.00;;;4.60;99.90;;;;;;5034980;28;20115;-81
2022/03/15 01:24:25;;;;;;;0.00;0.00;;;4.60;99.90;;;;;;5035859;28;20095;-81
2022/03/15 01:26:52;;;;;;;0.10;0.10;;;4.60;99.90;;;;;;5052649;28;20435;-81
2022/03/15 01:29:19;;;;;;;0.00;0.00;;;4.60;99.90;;;;;;5052379;28;20107;-81
2022/03/15 01:31:45;;;;;;;0.00;0.00;;;4.60;99.90;;;;;;5052290;28;20068;-81
2022/03/15 01:34:11;;;;;;;0.00;0.00;;;4.60;99.90;;;;;;5052378;28;20045;-81
2022/03/15 01:36:36;;;;;;;0.10;0.10;;;4.70;99.90;;;;;;5052498;28;20040;-81
2022/03/15 01:39:05;;;;;;;15.43;1.45;;;4.60;99.90;;;;;;5052342;28;20060;-81
2022/03/15 01:41:38;;;;;;;0.10;0.10;;;4.50;99.90;;;;;;5035698;28;20590;-81
2022/03/15 01:44:13;;;;;;;0.00;0.00;;;4.40;99.90;;;;;;5051909;28;20118;-81
2022/03/15 01:46:38;;;;;;;0.05;0.00;;;4.40;99.90;;;;;;5052513;28;20092;-81
2022/03/15 01:49:04;;;;;;;0.00;0.00;;;4.30;99.90;;;;;;5036166;28;20084;-81
2022/03/15 01:51:30;;;;;;;0.00;0.00;;;4.30;99.90;;;;;;5052234;28;20043;-81
2022/03/15 01:53:55;;;;;;;0.38;0.10;;;4.20;99.90;;;;;;5052101;28;20134;-81
2022/03/15 01:56:21;;;;;;;0.00;0.00;;;4.20;99.90;;;;;;5035376;28;20103;-81
2022/03/15 01:58:47;;;;;;;0.00;0.00;;;4.20;99.90;;;;;;5052047;28;20048;-81
2022/03/15 02:01:12;;;;;;;0.00;0.00;;;4.20;99.90;;;;;;5052109;28;20045;-81
2022/03/15 02:03:38;;;;;;;0.00;0.00;;;4.20;99.90;;;;;;5051597;28;20045;-81
2022/03/15 02:06:05;;;;;;;0.05;0.05;;;4.10;99.90;;;;;;5035437;28;20037;-81
2022/03/15 02:08:31;;;;;;;0.00;0.00;;;4.20;99.90;;;;;;5051892;28;20084;-81
2022/03/15 02:10:56;;;;;;;0.03;0.00;;;4.20;99.90;;;;;;5052066;28;20455;-81
2022/03/15 02:13:24;;;;;;;0.05;0.05;;;4.20;99.90;;;;;;5035228;28;20107;-81
2022/03/15 02:15:50;;;;;;;0.00;0.00;;;4.30;99.90;;;;;;5034828;28;20143;-81
2022/03/15 02:18:18;;;;;;;0.00;0.00;;;4.40;99.90;;;;;;5051940;28;20063;-81
2022/03/15 02:20:44;;;;;;;0.13;0.03;;;4.40;99.90;;;;;;5035631;28;20091;-81
2022/03/15 02:23:12;;;;;;;0.00;0.00;;;4.50;99.90;;;;;;5051679;28;20475;-81
2022/03/15 02:25:38;;;;;;;0.00;0.00;;;4.50;99.90;;;;;;5051792;28;20049;-81
2022/03/15 02:28:04;;;;;;;0.03;0.03;;;4.50;99.90;;;;;;5051950;28;20090;-81
2022/03/15 02:30:30;;;;;;;0.30;0.30;;;4.50;99.90;;;;;;5035292;28;20099;-81
2022/03/15 02:32:57;;;;;;;0.05;0.00;;;4.50;99.90;;;;;;5051691;28;20063;-81
2022/03/15 02:35:22;;;;;;;0.10;0.00;;;4.40;99.90;;;;;;5055201;28;20063;-81
2022/03/15 02:37:48;;;;;;;0.10;0.00;;;4.40;99.90;;;;;;5055094;28;20049;-81
2022/03/15 02:40:14;;;;;;;0.00;0.00;;;4.30;99.90;;;;;;5055296;28;20048;-81
2022/03/15 02:42:39;;;;;;;5.15;1.45;;;4.20;99.90;;;;;;5055121;28;20469;-81
2022/03/15 02:45:06;;;;;;;0.65;0.00;;;4.20;99.90;;;;;;5055169;28;20037;-81
2022/03/15 02:47:32;;;;;;;0.00;0.00;;;4.20;99.90;;;;;;5055109;28;20048;-81
2022/03/15 02:49:57;;;;;;;4.03;0.00;;;4.10;99.90;;;;;;5038383;28;20354;-81
2022/03/15 02:52:26;;;;;;;2.47;0.10;;;4.10;99.90;;;;;;5055163;28;20041;-81
2022/03/15 02:54:52;;;;;;;0.10;0.10;;;4.00;99.90;;;;;;5054905;28;20045;-81
2022/03/15 02:57:24;;;;;;;0.00;0.00;;;4.00;99.90;;;;;;5054519;28;20037;-81
2022/03/15 02:59:50;;;;;;;0.00;0.00;;;3.90;99.90;;;;;;5055146;28;20132;-81
2022/03/15 03:02:15;;;;;;;0.00;0.00;;;3.90;99.90;;;;;;5038324;28;20475;-81
2022/03/15 03:04:41;;;;;;;0.20;0.10;;;3.90;99.90;;;;;;5054465;28;20041;-81
2022/03/15 03:07:07;;;;;;;0.00;0.00;;;3.80;99.90;;;;;;5054752;28;20102;-81
2022/03/15 03:09:32;;;;;;;0.00;0.00;;;3.70;99.90;;;;;;5037840;28;20060;-81
2022/03/15 03:11:58;;;;;;;0.55;0.32;;;3.60;99.90;;;;;;5054662;28;20076;-81
2022/03/15 03:14:27;;;;;;;0.17;0.10;;;3.60;99.90;;;;;;5038285;28;20061;-81
2022/03/15 03:16:53;;;;;;;0.00;0.00;;;3.60;99.90;;;;;;5038380;28;20049;-81
2022/03/15 03:19:19;;;;;;;0.00;0.00;;;3.50;99.90;;;;;;5054640;28;20041;-81
2022/03/15 03:21:45;;;;;;;0.30;0.05;;;3.40;99.90;;;;;;5054625;28;20076;-81
2022/03/15 03:24:11;;;;;;;0.47;0.05;;;3.40;99.90;;;;;;5053686;28;20036;-82
2022/03/15 03:26:38;;;;;;;0.10;0.10;;;3.40;99.90;;;;;;5054594;28;20045;-81
2022/03/15 03:29:09;;;;;;;0.30;0.15;;;3.40;99.90;;;;;;5037560;28;20250;-81
2022/03/15 03:31:37;;;;;;;0.22;0.20;;;3.40;99.90;;;;;;5054658;28;20037;-81
2022/03/15 03:34:04;;;;;;;0.30;0.22;;;3.40;99.90;;;;;;5054244;28;20135;-81
2022/03/15 03:36:31;;;;;;;0.28;0.22;;;3.40;99.90;;;;;;5037514;28;20041;-81
2022/03/15 03:38:57;;;;;;;0.00;0.00;;;3.40;99.90;;;;;;5037682;28;20135;-81
2022/03/15 03:41:24;;;;;;;0.13;0.03;;;3.40;99.90;;;;;;5037527;28;20045;-81
2022/03/15 03:43:50;;;;;;;1.13;0.57;;;3.40;99.90;;;;;;5053667;28;20060;-81
2022/03/15 03:46:16;;;;;;;0.00;0.00;;;3.50;99.90;;;;;;5052988;28;20495;-81
2022/03/15 03:48:42;;;;;;;0.10;0.00;;;3.50;99.90;;;;;;5037346;28;20095;-81
2022/03/15 03:51:08;;;;;;;0.00;0.00;;;3.50;99.90;;;;;;5037315;28;20084;-81
2022/03/15 03:53:34;;;;;;;0.08;0.05;;;3.50;99.90;;;;;;5037278;28;20105;-81
2022/03/15 03:55:59;;;;;;;0.30;0.20;;;3.50;99.90;;;;;;5053734;28;20136;-82
2022/03/15 03:58:25;;;;;;;0.00;0.00;;;3.50;99.90;;;;;;5036911;28;20053;-81
2022/03/15 04:00:51;;;;;;;5.82;1.00;;;3.50;99.90;;;;;;5037134;28;20048;-81
2022/03/15 04:03:17;;;;;;;0.00;0.00;;;3.50;99.90;;;;;;5053544;28;20064;-81
2022/03/15 04:05:47;;;;;;;0.98;0.10;;;3.60;99.90;;;;;;5053586;28;20067;-81
2022/03/15 04:08:14;;;;;;;0.00;0.00;;;3.70;99.90;;;;;;5053363;28;20045;-81
2022/03/15 04:10:40;;;;;;;0.00;0.00;;;3.60;99.90;;;;;;5053758;28;20435;-81
2022/03/15 04:13:07;;;;;;;0.00;0.00;;;3.70;99.90;;;;;;5037097;28;20107;-81
2022/03/15 04:15:33;;;;;;;0.28;0.17;;;3.70;99.90;;;;;;5053267;28;20063;-81
2022/03/15 04:17:59;;;;;;;0.00;0.00;;;3.80;99.90;;;;;;5036823;28;20140;-81
2022/03/15 04:20:25;;;;;;;1.15;0.00;;;3.80;99.90;;;;;;5053280;28;20136;-81
2022/03/15 04:22:50;;;;;;;0.00;0.00;;;3.80;99.90;;;;;;5053183;28;20079;-81
2022/03/15 04:25:16;;;;;;;0.00;0.00;;;3.70;99.90;;;;;;5036468;28;20252;-81
2022/03/15 04:27:42;;;;;;;0.00;0.00;;;3.80;99.90;;;;;;5053138;28;20135;-81
2022/03/15 04:30:08;;;;;;;0.00;0.00;;;3.80;99.90;;;;;;5053259;28;20076;-81
2022/03/15 04:32:34;;;;;;;0.10;0.10;;;3.80;99.90;;;;;;5036576;28;20396;-81
2022/03/15 04:35:00;;;;;;;0.10;0.10;;;3.90;99.90;;;;;;5053580;28;20072;-81
2022/03/15 04:37:26;;;;;;;0.90;0.82;;;4.00;99.90;;;;;;5052946;28;20036;-81
2022/03/15 04:39:52;;;;;;;0.13;0.13;;;3.90;99.90;;;;;;5052942;28;20045;-81
2022/03/15 04:42:18;;;;;;;2.72;0.30;;;3.90;99.90;;;;;;5053311;28;20041;-81
2022/03/15 04:44:44;;;;;;;0.00;0.00;;;4.00;99.90;;;;;;5052963;28;20048;-81
2022/03/15 04:47:10;;;;;;;5.30;1.05;;;4.00;99.90;;;;;;5052851;28;20195;-81
2022/03/15 04:49:35;;;;;;;0.00;0.00;;;4.00;99.90;;;;;;5036244;28;20123;-81
2022/03/15 04:52:02;;;;;;;0.00;0.00;;;4.00;99.90;;;;;;5052885;28;20548;-81
2022/03/15 04:54:29;;;;;;;0.20;0.20;;;4.10;99.90;;;;;;5052900;28;20084;-81
2022/03/15 04:56:55;;;;;;;0.20;0.20;;;4.10;99.90;;;;;;5036232;28;20087;-81
2022/03/15 04:59:21;;;;;;;0.13;0.13;;;4.00;99.90;;;;;;5035733;28;20119;-81
2022/03/15 05:01:46;;;;;;;0.28;0.08;;;4.00;99.90;;;;;;5036245;28;20131;-81
2022/03/15 05:04:12;;;;;;;0.00;0.00;;;4.00;99.90;;;;;;5035827;28;20128;-81
2022/03/15 05:06:38;;;;;;;0.90;0.10;;;4.20;99.90;;;;;;5052766;28;20068;-81
2022/03/15 05:09:05;;;;;;;0.00;0.00;;;4.00;99.90;;;;;;5052491;28;20443;-81
2022/03/15 05:11:31;;;;;;;0.00;0.00;;;4.00;99.90;;;;;;5052675;28;20447;-81
2022/03/15 05:13:58;;;;;;;0.30;0.30;;;4.00;99.90;;;;;;5035733;28;20500;-81
2022/03/15 05:16:23;;;;;;;0.20;0.20;;;4.10;99.90;;;;;;5051929;28;20084;-81
2022/03/15 05:18:54;;;;;;;0.00;0.00;;;4.10;99.90;;;;;;5052672;28;20527;-81
2022/03/15 05:21:25;;;;;;;0.20;0.20;;;4.10;99.90;;;;;;5052537;28;20051;-81
2022/03/15 05:23:51;;;;;;;1.30;0.95;;;4.20;99.90;;;;;;5035963;28;20049;-81
2022/03/15 05:26:18;;;;;;;0.10;0.10;;;4.20;99.90;;;;;;5035871;28;20060;-81
2022/03/15 05:28:45;;;;;;;0.55;0.00;;;4.20;99.90;;;;;;5052559;28;20088;-81
2022/03/15 05:31:11;;;;;;;0.22;0.20;;;4.30;99.90;;;;;;5052328;28;20067;-81
2022/03/15 05:33:36;;;;;;;0.00;0.00;;;4.30;99.90;;;;;;5052501;28;20575;-81
2022/03/15 05:36:03;;;;;;;0.13;0.10;;;4.30;99.90;;;;;;5052314;28;20057;-81
2022/03/15 05:38:29;;;;;;;0.00;0.00;;;4.40;99.90;;;;;;5052378;28;20447;-81
2022/03/15 05:40:55;;;;;;;1.70;0.43;;;4.40;99.90;;;;;;5052526;28;20045;-81
2022/03/15 05:43:22;;;;;;;1.65;0.77;;;4.50;99.90;;;;;;5052080;28;20053;-81
2022/03/15 05:45:50;;;;;;;1.13;0.20;;;4.50;99.90;;;;;;5052149;28;20135;-81
2022/03/15 05:48:17;;;;;;;0.32;0.08;;;4.50;99.90;;;;;;5035702;28;20057;-81
2022/03/15 05:50:43;;;;;;;0.00;0.00;;;4.50;99.90;;;;;;5035545;28;20139;-81
2022/03/15 05:53:09;;;;;;;6.72;1.52;;;4.60;99.90;;;;;;5052142;28;20088;-81
2022/03/15 05:55:35;;;;;;;0.45;0.45;;;4.60;99.90;;;;;;5052185;28;20095;-81
2022/03/15 05:58:02;;;;;;;1.52;0.45;;;4.60;99.90;;;;;;5052124;28;20499;-82
2022/03/15 06:00:29;;;;;;;0.05;0.05;;;4.60;99.90;;;;;;5052544;28;20048;-81
2022/03/15 06:02:55;;;;;;;0.10;0.10;;;4.60;99.90;;;;;;5052488;28;20120;-81
2022/03/15 06:05:21;;;;;;;0.17;0.08;;;4.70;99.90;;;;;;5035730;28;20061;-81
2022/03/15 06:07:49;;;;;;;0.57;0.47;;;4.70;99.90;;;;;;5051778;28;20443;-81
2022/03/15 06:10:17;;;;;;;0.77;0.63;;;4.70;99.90;;;;;;5055571;28;20110;-81
2022/03/15 06:12:43;;;;;;;0.05;0.05;;;4.80;99.90;;;;;;5039229;28;20412;-81
2022/03/15 06:15:10;;;;;;;0.10;0.10;;;4.80;99.90;;;;;;5055339;28;20136;-81
2022/03/15 06:17:50;;;;;;;0.08;0.00;;;4.90;99.90;;;;;;5056347;28;20051;-81
2022/03/15 06:20:18;;;;;;;0.20;0.20;;;4.90;99.90;;;;;;5039126;28;20084;-81
2022/03/15 06:22:45;;;;;;;0.10;0.10;;;5.00;99.90;;;;;;5055378;28;20037;-81
2022/03/15 06:25:11;;;;;;;0.28;0.28;;;5.00;99.90;;;;;;5038753;28;20075;-81
2022/03/15 06:27:37;;;;;;;0.40;0.32;;;5.10;99.90;;;;;;5055521;28;20075;-82
2022/03/15 06:30:06;;;;;;;1.27;0.50;;;5.20;99.90;;;;;;5055794;28;20492;-81
2022/03/15 06:32:32;;;;;;;1.17;0.28;;;5.20;99.90;;;;;;5055642;28;20041;-81
2022/03/15 06:34:59;;;;;;;0.20;0.10;;;5.20;99.90;;;;;;5055758;28;20077;-81
2022/03/15 06:37:28;;;;;;;3.20;1.33;;;5.20;99.90;;;;;;5055368;28;20392;-82
2022/03/15 06:39:55;;;;;;;1.17;1.08;;;5.30;99.90;;;;;;5055260;28;20045;-81
2022/03/15 06:42:21;;;;;;;0.60;0.20;;;5.30;99.90;;;;;;5038760;28;20056;-81
2022/03/15 06:44:47;;;;;;;1.88;0.57;;;5.40;99.90;;;;;;5055234;28;20037;-81
2022/03/15 06:47:13;;;;;;;0.57;0.45;;;5.30;99.90;;;;;;5038886;28;20515;-82
2022/03/15 06:49:39;;;;;;;1.65;0.98;;;5.30;99.90;;;;;;5038274;28;20060;-81
2022/03/15 06:52:05;;;;;;;2.13;0.10;;;5.40;99.90;;;;;;5038604;28;20374;-82
2022/03/15 06:54:31;;;;;;;6.55;0.38;;;5.40;99.90;;;;;;5054703;28;20053;-81
2022/03/15 06:56:57;;;;;;;1.02;0.82;;;5.50;99.90;;;;;;5055203;28;20040;-81
2022/03/15 06:59:23;;;;;;;2.80;0.30;;;5.50;99.90;;;;;;5054919;28;20049;-81
2022/03/15 07:01:49;;;;;;;0.08;0.08;;;5.50;99.90;;;;;;5054920;28;20052;-81
2022/03/15 07:04:17;;;;;;;2.03;0.35;;;5.60;99.90;;;;;;5037939;28;20032;-81
2022/03/15 07:06:43;;;;;;;1.08;0.40;;;5.60;99.90;;;;;;5038129;28;20142;-81
2022/03/15 07:09:09;;;;;;;6.43;1.73;;;5.60;99.90;;;;;;5037811;28;20055;-82
2022/03/15 07:11:35;;;;;;;0.30;0.30;;;5.70;99.90;;;;;;5054849;28;20037;-82
2022/03/15 07:14:02;;;;;;;0.13;0.03;;;5.70;99.90;;;;;;5054999;28;20554;-82
2022/03/15 07:16:28;;;;;;;0.20;0.20;;;5.80;99.90;;;;;;5054957;28;20055;-82
2022/03/15 07:18:53;;;;;;;0.10;0.10;;;5.80;99.90;;;;;;5054867;28;20385;-81
2022/03/15 07:21:19;;;;;;;2.08;0.40;;;5.80;99.90;;;;;;5053771;28;20040;-81
2022/03/15 07:23:44;;;;;;;0.47;0.47;;;5.90;99.90;;;;;;5054475;28;20063;-81
2022/03/15 07:26:10;;;;;;;0.80;0.38;;;6.00;99.90;;;;;;5054680;28;20082;-82
2022/03/15 07:28:36;;;;;;;2.17;0.70;;;6.00;99.90;;;;;;5054727;28;20078;-82
2022/03/15 07:31:01;;;;;;;0.10;0.10;;;6.00;99.90;;;;;;5038633;28;20049;-81
2022/03/15 07:33:27;;;;;;;0.10;0.10;;;6.10;99.90;;;;;;5054510;28;20397;-81
2022/03/15 07:35:53;;;;;;;0.28;0.28;;;6.20;99.90;;;;;;5054583;28;20044;-82
2022/03/15 07:38:20;;;;;;;0.28;0.28;;;6.20;99.90;;;;;;5037727;28;20056;-82
2022/03/15 07:40:46;;;;;;;0.70;0.30;;;6.20;99.90;;;;;;5054338;28;20045;-82
2022/03/15 07:43:12;;;;;;;1.10;0.95;;;6.30;99.90;;;;;;5054311;28;20076;-81
2022/03/15 07:45:38;;;;;;;2.45;0.28;;;6.30;99.90;;;;;;5054142;28;20045;-82
2022/03/15 07:48:05;;;;;;;0.30;0.10;;;6.40;99.90;;;;;;5053886;28;20104;-81
2022/03/15 07:50:31;;;;;;;0.28;0.28;;;6.40;99.90;;;;;;5053978;28;20052;-81
2022/03/15 07:52:58;;;;;;;0.28;0.28;;;6.40;99.90;;;;;;5053922;28;20382;-81
2022/03/15 07:55:24;;;;;;;0.15;0.15;;;6.50;99.90;;;;;;5053897;28;20534;-81
2022/03/15 07:57:50;;;;;;;8.98;1.23;;;6.50;99.90;;;;;;5053833;28;20572;-81
2022/03/15 08:00:16;;;;;;;0.00;0.00;;;6.50;99.90;;;;;;5037173;28;20123;-81
2022/03/15 08:02:42;;;;;;;1.52;0.22;;;6.60;99.90;;;;;;5036909;28;20396;-81
2022/03/15 08:05:09;;;;;;;2.83;1.08;;;6.60;99.90;;;;;;5053663;28;20397;-81
2022/03/15 08:07:36;;;;;;;1.52;1.05;;;6.70;99.90;;;;;;5036838;28;20404;-81
2022/03/15 08:10:10;;;;;;;0.60;0.43;;;6.70;99.90;;;;;;5037522;28;20060;-81
2022/03/15 08:12:37;;;;;;;0.20;0.20;;;6.70;99.90;;;;;;5037153;28;20091;-81
2022/03/15 08:15:05;;;;;;;0.17;0.17;;;6.70;99.90;;;;;;5036617;28;20060;-81
2022/03/15 08:17:30;;;;;;;0.08;0.08;;;6.80;99.90;;;;;;5036899;28;20056;-81
2022/03/15 08:19:58;;;;;;;0.13;0.13;;;6.80;99.90;;;;;;5053317;28;20049;-81
2022/03/15 08:22:25;;;;;;;3.58;0.73;;;6.80;99.90;;;;;;5054474;28;20041;-81
2022/03/15 08:24:50;;;;;;;1.60;0.15;;;6.80;99.90;;;;;;5037225;28;20145;-82
2022/03/15 08:27:16;;;;;;;1.25;0.60;;;6.90;99.90;;;;;;5053345;28;20489;-81
2022/03/15 08:29:43;;;;;;;3.50;0.40;;;6.90;99.90;;;;;;5053067;28;20427;-81
2022/03/15 08:32:09;;;;;;;0.20;0.20;;;6.90;99.90;;;;;;5035984;28;20044;-81
2022/03/15 08:34:37;;;;;;;2.28;0.68;;;6.90;99.90;;;;;;5036750;28;20052;-81
2022/03/15 08:37:03;;;;;;;1.60;1.05;;;6.90;99.90;;;;;;5036682;28;20053;-81
2022/03/15 08:39:29;;;;;;;0.10;0.10;;;6.90;99.90;;;;;;5037192;28;20053;-81
2022/03/15 08:41:55;;;;;;;0.32;0.32;;;7.00;99.90;;;;;;5037024;28;20049;-81
2022/03/15 08:44:22;;;;;;;1.10;0.93;;;7.00;99.90;;;;;;5036296;28;20040;-81
2022/03/15 08:46:49;;;;;;;3.10;1.10;;;7.00;99.90;;;;;;5036487;28;20102;-81
2022/03/15 08:49:19;;;;;;;1.35;0.38;;;7.10;99.90;;;;;;5036517;28;20052;-81
2022/03/15 08:51:46;;;;;;;0.43;0.32;;;7.10;99.90;;;;;;5037549;28;20041;-81
2022/03/15 08:54:12;;;;;;;0.55;0.55;;;7.20;99.90;;;;;;5055638;28;20059;-81
2022/03/15 08:56:41;;;;;;;1.17;1.08;;;7.20;99.90;;;;;;5048681;28;20053;-82
2022/03/15 08:59:15;;;;;;;0.10;0.10;;;7.20;99.90;;;;;;5045822;28;20056;-81
2022/03/15 09:01:44;;;;;;;0.82;0.20;;;7.30;99.90;;;;;;5054102;28;20061;-81
2022/03/15 09:04:11;;;;;;;0.73;0.57;;;7.20;99.90;;;;;;5072283;28;20488;-81
2022/03/15 09:06:37;;;;;;;1.25;0.65;;;7.20;99.90;;;;;;5038305;28;20493;-81
2022/03/15 09:09:03;;;;;;;0.95;0.70;;;7.20;99.90;;;;;;5035853;28;20059;-81
2022/03/15 09:11:30;;;;;;;0.60;0.47;;;7.30;99.90;;;;;;5036377;28;20052;-81
2022/03/15 09:13:56;;;;;;;1.60;1.50;;;7.30;99.90;;;;;;5052785;28;20064;-82
2022/03/15 09:16:22;;;;;;;0.55;0.10;;;7.40;99.90;;;;;;5053586;28;20412;-82
2022/03/15 09:18:48;;;;;;;0.05;0.05;;;7.40;99.90;;;;;;5036559;28;20134;-81
2022/03/15 09:21:14;;;;;;;0.32;0.28;;;7.40;99.90;;;;;;5036092;28;20088;-82
2022/03/15 09:23:40;;;;;;;0.95;0.32;;;7.50;99.90;;;;;;5047742;28;20090;-82
2022/03/15 09:26:06;;;;;;;0.57;0.32;;;7.50;99.90;;;;;;5052128;28;20072;-82
2022/03/15 09:28:33;;;;;;;2.72;0.10;;;7.50;99.90;;;;;;5070606;28;20071;-82
2022/03/15 09:31:01;;;;;;;0.10;0.10;;;7.60;99.90;;;;;;5071744;28;20061;-82
2022/03/15 09:33:27;;;;;;;1.60;0.85;;;7.60;99.90;;;;;;5072546;28;20087;-82
2022/03/15 09:35:53;;;;;;;0.55;0.32;;;7.60;99.90;;;;;;5072169;28;20136;-82
2022/03/15 09:38:21;;;;;;;0.40;0.40;;;7.70;99.90;;;;;;5055463;28;20146;-82
2022/03/15 09:40:52;;;;;;;0.60;0.60;;;7.70;99.90;;;;;;5055407;28;20052;-82
2022/03/15 09:43:21;;;;;;;0.05;0.05;;;7.70;99.90;;;;;;5072458;28;20515;-81
2022/03/15 09:45:49;;;;;;;1.63;0.82;;;7.80;99.90;;;;;;5076357;28;20484;-81
2022/03/15 09:48:19;;;;;;;0.00;0.00;;;7.80;99.90;;;;;;5059605;28;20106;-81
2022/03/15 09:50:49;;;;;;;0.93;0.77;;;7.90;99.90;;;;;;5059838;28;20051;-81
2022/03/15 09:53:16;;;;;;;1.85;0.52;;;8.00;99.90;;;;;;5059550;28;20051;-81
2022/03/15 09:55:47;;;;;;;0.00;0.00;;;8.00;99.90;;;;;;5076202;28;20044;-81
2022/03/15 09:58:19;;;;;;;0.35;0.35;;;8.10;99.90;;;;;;5076741;28;20044;-81
2022/03/15 10:00:49;;;;;;;1.63;0.60;;;8.10;99.90;;;;;;5059398;28;20060;-81
2022/03/15 10:03:16;;;;;;;1.88;0.57;;;8.10;99.90;;;;;;5059003;28;20053;-81
2022/03/15 10:05:42;;;;;;;0.28;0.28;;;8.20;99.90;;;;;;5075987;28;20033;-81
2022/03/15 10:08:08;;;;;;;1.23;0.17;;;8.30;99.90;;;;;;5076065;28;20380;-81
2022/03/15 10:10:34;;;;;;;0.22;0.22;;;8.30;99.90;;;;;;5076861;28;20135;-82
2022/03/15 10:13:00;;;;;;;0.25;0.25;;;8.40;99.90;;;;;;5058882;28;20440;-81
2022/03/15 10:15:26;;;;;;;1.02;0.30;;;8.50;99.90;;;;;;5075401;28;20053;-81
2022/03/15 10:17:56;;;;;;;0.10;0.10;;;8.60;99.90;;;;;;5058647;28;20045;-81
2022/03/15 10:20:28;;;;;;;1.02;0.85;;;8.60;99.90;;;;;;5076006;28;20049;-81
2022/03/15 10:23:00;;;;;;;0.30;0.00;;;8.70;99.90;;;;;;5075484;28;20044;-81
2022/03/15 10:25:27;;;;;;;0.50;0.50;;;8.80;99.90;;;;;;5059146;28;20064;-82
2022/03/15 10:28:14;;;;;;;0.30;0.30;;;8.80;99.90;;;;;;5059535;28;20107;-82
2022/03/15 10:30:41;;;;;;;0.30;0.30;;;8.80;99.90;;;;;;5075659;28;20036;-82
2022/03/15 10:33:07;;;;;;;0.52;0.50;;;8.90;99.90;;;;;;5075523;28;20048;-82
2022/03/15 10:35:45;;;;;;;0.08;0.00;;;8.90;99.90;;;;;;5075174;28;20184;-82
2022/03/15 10:38:11;;;;;;;0.98;0.40;;;8.90;99.90;;;;;;5076392;28;20049;-81
2022/03/15 10:40:38;;;;;;;0.57;0.47;;;9.00;99.90;;;;;;5058651;28;20052;-82
2022/03/15 10:43:07;;;;;;;0.30;0.30;;;9.10;99.90;;;;;;5074786;28;20404;-82
2022/03/15 10:45:34;;;;;;;2.97;1.23;;;9.10;99.90;;;;;;5075119;28;20190;-82
2022/03/15 10:48:01;;;;;;;1.17;0.47;;;9.10;99.90;;;;;;5058972;28;20056;-82
2022/03/15 10:50:29;;;;;;;0.20;0.10;;;9.20;99.90;;;;;;5075018;28;20048;-82
2022/03/15 10:52:56;;;;;;;1.90;1.08;;;9.20;99.90;;;;;;5058463;28;20036;-82
2022/03/15 10:55:32;;;;;;;2.47;0.75;;;9.20;99.90;;;;;;5058299;28;20048;-82
2022/03/15 10:58:02;;;;;;;0.50;0.50;;;9.10;99.90;;;;;;5074968;28;20044;-82
2022/03/15 11:00:30;;;;;;;0.52;0.52;;;9.20;99.90;;;;;;5058577;28;20135;-82
2022/03/15 11:02:57;;;;;;;0.68;0.65;;;9.30;99.90;;;;;;5058058;28;20105;-82
2022/03/15 11:05:33;;;;;;;0.10;0.10;;;9.30;99.90;;;;;;5075117;28;20048;-82
2022/03/15 11:08:11;;;;;;;0.30;0.13;;;9.40;99.90;;;;;;5074725;28;20063;-82
2022/03/15 11:10:38;;;;;;;0.25;0.25;;;9.40;99.90;;;;;;5058107;28;20044;-82
2022/03/15 11:13:12;;;;;;;1.58;0.40;;;9.50;99.90;;;;;;5057606;28;20410;-82
2022/03/15 11:15:42;;;;;;;0.22;0.20;;;9.60;99.90;;;;;;5074755;28;20049;-82
2022/03/15 11:18:13;;;;;;;0.40;0.40;;;9.60;99.90;;;;;;5057983;28;20466;-82
2022/03/15 11:20:41;;;;;;;0.25;0.25;;;9.80;99.90;;;;;;5075135;28;20120;-82
2022/03/15 11:23:13;;;;;;;0.20;0.13;;;9.90;99.90;;;;;;5057685;28;20082;-82
2022/03/15 11:25:43;;;;;;;1.92;1.20;;;9.90;99.90;;;;;;5058092;28;20052;-83
2022/03/15 11:28:12;;;;;;;1.38;0.45;;;10.00;99.90;;;;;;5066585;28;20488;-82
2022/03/15 11:30:39;;;;;;;4.85;0.65;;;10.10;99.90;;;;;;5073736;28;20087;-83
2022/03/15 11:33:07;;;;;;;0.15;0.10;;;10.20;99.90;;;;;;5057078;28;20523;-82
2022/03/15 11:35:34;;;;;;;0.68;0.60;;;10.20;99.90;;;;;;5035723;28;20041;-82
2022/03/15 11:38:04;;;;;;;0.52;0.47;;;10.20;99.90;;;;;;5037677;28;20048;-82
2022/03/15 11:40:31;;;;;;;0.20;0.20;;;10.30;99.90;;;;;;5037564;28;20080;-83
2022/03/15 11:43:22;;;;;;;0.20;0.20;;;10.40;99.90;;;;;;5037406;28;20045;-82
2022/03/15 11:46:03;;;;;;;0.00;0.00;;;10.50;99.90;;;;;;5054191;28;20049;-82
2022/03/15 11:48:59;;;;;;;0.22;0.22;;;10.50;99.90;;;;;;5054158;28;20052;-82
2022/03/15 11:51:48;;;;;;;0.57;0.30;;;10.50;99.90;;;;;;5055000;28;20132;-82
2022/03/15 11:54:58;;;;;;;0.38;0.28;;;10.50;99.90;;;;;;5053803;28;20049;-82
2022/03/15 11:57:31;;;;;;;0.30;0.30;;;10.60;99.90;;;;;;5053499;28;20527;-82
2022/03/15 11:59:57;;;;;;;2.45;0.57;;;10.70;99.90;;;;;;5053835;28;20045;-82
2022/03/15 12:02:29;;;;;;;0.45;0.20;;;10.70;99.90;;;;;;5053616;28;20041;-82
2022/03/15 12:04:58;;;;;;;1.27;0.80;;;10.80;99.90;;;;;;5053683;28;20041;-82
2022/03/15 12:07:36;;;;;;;1.83;0.85;;;10.90;99.90;;;;;;5052976;28;20049;-82
2022/03/15 12:10:08;;;;;;;0.75;0.73;;;11.00;99.90;;;;;;5054048;28;20041;-82
2022/03/15 12:12:33;;;;;;;0.47;0.10;;;11.00;99.90;;;;;;5053959;28;20106;-82
2022/03/15 12:15:12;;;;;;;5.68;0.40;;;11.10;99.90;;;;;;5053325;28;20497;-82
2022/03/15 12:17:41;;;;;;;0.20;0.20;;;11.20;99.90;;;;;;5036946;28;20064;-82
2022/03/15 12:20:16;;;;;;;0.70;0.65;;;11.20;99.90;;;;;;5037060;28;20067;-82
2022/03/15 12:22:43;;;;;;;0.30;0.30;;;11.20;99.90;;;;;;5036827;28;20049;-82
2022/03/15 12:25:17;;;;;;;1.95;0.30;;;11.20;99.90;;;;;;5053574;28;20049;-82
2022/03/15 12:27:49;;;;;;;0.35;0.35;;;11.40;99.90;;;;;;5053385;28;20052;-82
2022/03/15 12:30:30;;;;;;;0.40;0.40;;;11.40;99.90;;;;;;5036225;28;20512;-82
2022/03/15 12:32:57;;;;;;;4.55;0.35;;;11.50;99.90;;;;;;5053130;28;20048;-82
2022/03/15 12:35:29;;;;;;;0.68;0.68;;;11.40;99.90;;;;;;5036586;28;20057;-82
2022/03/15 12:38:10;;;;;;;0.95;0.68;;;11.40;99.90;;;;;;5053148;28;20045;-82
2022/03/15 12:40:42;;;;;;;0.85;0.25;;;11.40;99.90;;;;;;5037226;28;20048;-82
2022/03/15 12:43:08;;;;;;;1.33;0.60;;;11.40;99.90;;;;;;5053265;28;20529;-82
2022/03/15 12:45:45;;;;;;;1.15;0.38;;;11.40;99.90;;;;;;5053040;28;20049;-82
2022/03/15 12:48:11;;;;;;;8.45;0.85;;;11.50;99.90;;;;;;5053319;28;20132;-82
2022/03/15 12:50:37;;;;;;;0.30;0.20;;;11.60;99.90;;;;;;5036288;28;20092;-82
2022/03/15 12:53:15;;;;;;;1.30;0.52;;;11.60;99.90;;;;;;5053598;28;20053;-82
2022/03/15 12:55:42;;;;;;;0.52;0.52;;;11.70;99.90;;;;;;5036325;28;20048;-82
2022/03/15 12:58:12;;;;;;;0.98;0.98;;;11.70;99.90;;;;;;5036097;28;20092;-82